sensor_id;sensor_type;location;lat;lon;timestamp;pressure;altitude;pressure_sealevel;temperature;humidity
79129;BME280;68529;43.286;23.360;2023-12-20T00:01:18;99456.78;;;4.60;59.51
79129;BME280;68529;43.286;23.360;2023-12-20T00:03:43;99449.81;;;4.62;59.36
79129;BME280;68529;43.286;23.360;2023-12-20T00:06:09;99445.44;;;4.64;59.54
79129;BME280;68529;43.286;23.360;2023-12-20T00:08:34;99447.16;;;4.69;59.31
79129;BME280;68529;43.286;23.360;2023-12-20T00:11:00;99435.03;;;4.67;59.14
79129;BME280;68529;43.286;23.360;2023-12-20T00:13:25;99439.31;;;4.72;59.38
79129;BME280;68529;43.286;23.360;2023-12-20T00:15:50;99435.91;;;4.67;59.14
79129;BME280;68529;43.286;23.360;2023-12-20T00:18:16;99442.03;;;4.59;59.37
79129;BME280;68529;43.286;23.360;2023-12-20T00:20:41;99436.03;;;4.51;59.49
79129;BME280;68529;43.286;23.360;2023-12-20T00:23:07;99438.63;;;4.51;59.52
79129;BME280;68529;43.286;23.360;2023-12-20T00:25:33;99431.72;;;4.45;59.80
79129;BME280;68529;43.286;23.360;2023-12-20T00:27:59;99433.47;;;4.46;59.58
79129;BME280;68529;43.286;23.360;2023-12-20T00:30:25;99431.72;;;4.45;59.91
79129;BME280;68529;43.286;23.360;2023-12-20T00:32:50;99429.97;;;4.47;59.83
79129;BME280;68529;43.286;23.360;2023-12-20T00:35:16;99424.75;;;4.50;60.01
79129;BME280;68529;43.286;23.360;2023-12-20T00:37:42;99426.50;;;4.51;59.86
79129;BME280;68529;43.286;23.360;2023-12-20T00:40:08;99424.75;;;4.50;59.44
79129;BME280;68529;43.286;23.360;2023-12-20T00:42:34;99421.31;;;4.45;59.77
79129;BME280;68529;43.286;23.360;2023-12-20T00:45:01;99425.63;;;4.51;59.79
79129;BME280;68529;43.286;23.360;2023-12-20T00:47:26;99417.06;;;4.37;60.04
79129;BME280;68529;43.286;23.360;2023-12-20T00:49:51;99412.72;;;4.33;60.22
79129;BME280;68529;43.286;23.360;2023-12-20T00:52:17;99410.06;;;4.45;59.98
79129;BME280;68529;43.286;23.360;2023-12-20T00:54:43;99409.06;;;4.58;59.64
79129;BME280;68529;43.286;23.360;2023-12-20T00:57:09;99404.78;;;4.54;59.55
79129;BME280;68529;43.286;23.360;2023-12-20T00:59:34;99394.31;;;4.61;59.86
79129;BME280;68529;43.286;23.360;2023-12-20T01:02:00;99394.22;;;4.72;59.38
79129;BME280;68529;43.286;23.360;2023-12-20T01:04:25;99393.38;;;4.72;59.21
79129;BME280;68529;43.286;23.360;2023-12-20T01:06:51;99389.06;;;4.67;59.35
79129;BME280;68529;43.286;23.360;2023-12-20T01:09:17;99384.84;;;4.57;59.25
79129;BME280;68529;43.286;23.360;2023-12-20T01:11:43;99371.97;;;4.39;59.90
79129;BME280;68529;43.286;23.360;2023-12-20T01:14:09;99372.03;;;4.29;59.92
79129;BME280;68529;43.286;23.360;2023-12-20T01:16:34;99372.91;;;4.32;59.65
79129;BME280;68529;43.286;23.360;2023-12-20T01:18:59;99365.97;;;4.30;59.68
79129;BME280;68529;43.286;23.360;2023-12-20T01:21:25;99359.03;;;4.27;59.56
79129;BME280;68529;43.286;23.360;2023-12-20T01:23:50;99359.97;;;4.20;59.87
79129;BME280;68529;43.286;23.360;2023-12-20T01:26:16;99362.63;;;4.16;60.01
79129;BME280;68529;43.286;23.360;2023-12-20T01:28:42;99364.34;;;4.10;60.29
79129;BME280;68529;43.286;23.360;2023-12-20T01:31:08;99348.75;;;4.10;60.02
79129;BME280;68529;43.286;23.360;2023-12-20T01:33:33;99347.81;;;4.22;60.43
79129;BME280;68529;43.286;23.360;2023-12-20T01:35:59;99347.72;;;4.36;60.28
79129;BME280;68529;43.286;23.360;2023-12-20T01:38:24;99341.59;;;4.41;59.99
79129;BME280;68529;43.286;23.360;2023-12-20T01:40:49;99331.19;;;4.46;60.06
79129;BME280;68529;43.286;23.360;2023-12-20T01:43:15;99328.50;;;4.55;59.76
79129;BME280;68529;43.286;23.360;2023-12-20T01:45:40;99326.72;;;4.58;60.07
79129;BME280;68529;43.286;23.360;2023-12-20T01:48:07;99325.88;;;4.56;59.82
79129;BME280;68529;43.286;23.360;2023-12-20T01:50:35;99317.34;;;4.42;59.66
79129;BME280;68529;43.286;23.360;2023-12-20T01:53:02;99312.22;;;4.35;60.34
79129;BME280;68529;43.286;23.360;2023-12-20T01:55:29;99320.03;;;4.30;59.89
79129;BME280;68529;43.286;23.360;2023-12-20T01:57:57;99308.69;;;4.40;60.44
79129;BME280;68529;43.286;23.360;2023-12-20T02:00:23;99311.16;;;4.54;60.24
79129;BME280;68529;43.286;23.360;2023-12-20T02:02:52;99308.53;;;4.55;59.53
79129;BME280;68529;43.286;23.360;2023-12-20T02:05:18;99298.31;;;4.37;59.86
79129;BME280;68529;43.286;23.360;2023-12-20T02:07:44;99297.69;;;4.09;60.05
79129;BME280;68529;43.286;23.360;2023-12-20T02:10:09;99303.81;;;4.01;60.20
79129;BME280;68529;43.286;23.360;2023-12-20T02:12:34;99304.69;;;3.97;60.56
79129;BME280;68529;43.286;23.360;2023-12-20T02:15:00;99298.69;;;3.90;60.79
79129;BME280;68529;43.286;23.360;2023-12-20T02:17:27;99293.47;;;3.93;60.56
79129;BME280;68529;43.286;23.360;2023-12-20T02:19:52;99289.19;;;3.83;60.77
79129;BME280;68529;43.286;23.360;2023-12-20T02:22:18;99292.72;;;3.79;60.91
79129;BME280;68529;43.286;23.360;2023-12-20T02:31:27;99277.88;;;3.92;61.69
79129;BME280;68529;43.286;23.360;2023-12-20T02:33:52;99268.28;;;4.01;61.11
79129;BME280;68529;43.286;23.360;2023-12-20T02:36:17;99270.88;;;4.00;61.41
79129;BME280;68529;43.286;23.360;2023-12-20T02:38:43;99263.88;;;4.11;61.28
79129;BME280;68529;43.286;23.360;2023-12-20T02:41:08;99263.91;;;4.09;61.45
79129;BME280;68529;43.286;23.360;2023-12-20T02:43:33;99263.06;;;4.03;61.07
79129;BME280;68529;43.286;23.360;2023-12-20T02:45:59;99254.44;;;4.01;61.17
79129;BME280;68529;43.286;23.360;2023-12-20T02:48:24;99257.06;;;3.95;60.78
79129;BME280;68529;43.286;23.360;2023-12-20T02:50:49;99245.78;;;3.97;61.39
79129;BME280;68529;43.286;23.360;2023-12-20T02:53:15;99242.47;;;3.82;61.25
79129;BME280;68529;43.286;23.360;2023-12-20T02:55:41;99241.56;;;3.87;61.63
79129;BME280;68529;43.286;23.360;2023-12-20T02:58:07;99239.78;;;3.91;61.20
79129;BME280;68529;43.286;23.360;2023-12-20T03:00:32;99238.84;;;3.96;61.33
79129;BME280;68529;43.286;23.360;2023-12-20T03:02:57;99238.06;;;3.93;61.00
79129;BME280;68529;43.286;23.360;2023-12-20T03:05:24;99233.75;;;3.87;60.61
79129;BME280;68529;43.286;23.360;2023-12-20T03:07:50;99227.72;;;3.84;61.11
79129;BME280;68529;43.286;23.360;2023-12-20T03:10:15;99228.63;;;3.81;61.20
79129;BME280;68529;43.286;23.360;2023-12-20T03:12:40;99232.16;;;3.71;60.77
79129;BME280;68529;43.286;23.360;2023-12-20T03:15:06;99231.31;;;3.68;60.85
79129;BME280;68529;43.286;23.360;2023-12-20T03:17:31;99222.63;;;3.69;60.86
79129;BME280;68529;43.286;23.360;2023-12-20T03:19:57;99228.66;;;3.72;61.21
79129;BME280;68529;43.286;23.360;2023-12-20T03:22:22;99219.16;;;3.70;61.21
79129;BME280;68529;43.286;23.360;2023-12-20T03:24:48;99226.13;;;3.66;61.19
79129;BME280;68529;43.286;23.360;2023-12-20T03:27:13;99214.06;;;3.56;61.13
79129;BME280;68529;43.286;23.360;2023-12-20T03:29:38;99208.91;;;3.53;60.91
79129;BME280;68529;43.286;23.360;2023-12-20T03:32:04;99206.31;;;3.53;61.20
79129;BME280;68529;43.286;23.360;2023-12-20T03:34:29;99202.91;;;3.43;61.53
79129;BME280;68529;43.286;23.360;2023-12-20T03:36:55;99194.22;;;3.47;61.71
79129;BME280;68529;43.286;23.360;2023-12-20T03:39:20;99201.13;;;3.51;61.63
79129;BME280;68529;43.286;23.360;2023-12-20T03:41:45;99193.34;;;3.51;61.63
79129;BME280;68529;43.286;23.360;2023-12-20T03:44:11;99195.03;;;3.56;61.69
79129;BME280;68529;43.286;23.360;2023-12-20T03:46:36;99194.22;;;3.50;61.91
79129;BME280;68529;43.286;23.360;2023-12-20T03:49:01;99185.56;;;3.51;61.88
79129;BME280;68529;43.286;23.360;2023-12-20T03:51:27;99186.34;;;3.61;61.15
79129;BME280;68529;43.286;23.360;2023-12-20T03:53:52;99183.88;;;3.44;62.04
79129;BME280;68529;43.286;23.360;2023-12-20T03:56:18;99174.38;;;3.39;61.55
79129;BME280;68529;43.286;23.360;2023-12-20T03:58:43;99176.19;;;3.31;62.14
79129;BME280;68529;43.286;23.360;2023-12-20T04:01:11;99176.22;;;3.26;62.20
79129;BME280;68529;43.286;23.360;2023-12-20T04:03:38;99177.94;;;3.24;62.15
79129;BME280;68529;43.286;23.360;2023-12-20T04:06:03;99174.47;;;3.28;62.01
79129;BME280;68529;43.286;23.360;2023-12-20T04:08:29;99172.69;;;3.33;62.42
79129;BME280;68529;43.286;23.360;2023-12-20T04:10:54;99177.88;;;3.36;62.57
79129;BME280;68529;43.286;23.360;2023-12-20T04:13:19;99163.22;;;3.29;62.26
79129;BME280;68529;43.286;23.360;2023-12-20T04:15:45;99159.63;;;3.45;62.26
79129;BME280;68529;43.286;23.360;2023-12-20T04:18:10;99156.06;;;3.60;62.11
79129;BME280;68529;43.286;23.360;2023-12-20T04:20:35;99159.50;;;3.62;61.72
79129;BME280;68529;43.286;23.360;2023-12-20T04:23:01;99155.06;;;3.72;61.88
79129;BME280;68529;43.286;23.360;2023-12-20T04:25:26;99155.88;;;3.81;61.66
79129;BME280;68529;43.286;23.360;2023-12-20T04:27:51;99158.41;;;3.86;61.71
79129;BME280;68529;43.286;23.360;2023-12-20T04:30:17;99148.03;;;3.87;61.77
79129;BME280;68529;43.286;23.360;2023-12-20T04:32:42;99147.09;;;3.94;61.68
79129;BME280;68529;43.286;23.360;2023-12-20T04:35:08;99142.66;;;4.04;61.82
79129;BME280;68529;43.286;23.360;2023-12-20T04:37:33;99140.91;;;4.07;61.62
79129;BME280;68529;43.286;23.360;2023-12-20T04:39:59;99150.31;;;4.18;61.64
79129;BME280;68529;43.286;23.360;2023-12-20T04:42:24;99141.56;;;4.25;61.60
79129;BME280;68529;43.286;23.360;2023-12-20T04:44:49;99142.47;;;4.24;61.34
79129;BME280;68529;43.286;23.360;2023-12-20T04:47:15;99144.16;;;4.25;61.22
79129;BME280;68529;43.286;23.360;2023-12-20T04:49:40;99145.06;;;4.24;61.33
79129;BME280;68529;43.286;23.360;2023-12-20T04:52:05;99141.56;;;4.25;61.34
79129;BME280;68529;43.286;23.360;2023-12-20T04:54:31;99136.47;;;4.17;61.13
79129;BME280;68529;43.286;23.360;2023-12-20T04:56:56;99131.28;;;4.14;61.28
79129;BME280;68529;43.286;23.360;2023-12-20T04:59:21;99132.25;;;4.07;60.96
79129;BME280;68529;43.286;23.360;2023-12-20T05:01:47;99139.25;;;4.02;61.28
79129;BME280;68529;43.286;23.360;2023-12-20T05:04:12;99138.25;;;4.12;61.43
79129;BME280;68529;43.286;23.360;2023-12-20T05:06:38;99138.22;;;4.13;61.54
79129;BME280;68529;43.286;23.360;2023-12-20T05:09:03;99127.09;;;4.01;60.64
79129;BME280;68529;43.286;23.360;2023-12-20T05:11:29;99137.09;;;3.50;61.11
79129;BME280;68529;43.286;23.360;2023-12-20T05:13:54;99126.91;;;3.22;61.24
79129;BME280;68529;43.286;23.360;2023-12-20T05:16:19;99129.47;;;3.31;62.01
79129;BME280;68529;43.286;23.360;2023-12-20T05:18:47;99130.25;;;3.40;61.90
79129;BME280;68529;43.286;23.360;2023-12-20T05:21:13;99129.28;;;3.53;62.03
79129;BME280;68529;43.286;23.360;2023-12-20T05:23:38;99125.78;;;3.58;61.68
79129;BME280;68529;43.286;23.360;2023-12-20T05:26:03;99130.16;;;3.54;61.46
79129;BME280;68529;43.286;23.360;2023-12-20T05:28:29;99129.34;;;3.44;61.18
79129;BME280;68529;43.286;23.360;2023-12-20T05:30:54;99126.91;;;3.26;61.28
79129;BME280;68529;43.286;23.360;2023-12-20T05:33:20;99129.56;;;3.17;61.98
79129;BME280;68529;43.286;23.360;2023-12-20T05:35:45;99126.09;;;3.17;61.89
79129;BME280;68529;43.286;23.360;2023-12-20T05:38:10;99122.63;;;3.21;62.11
79129;BME280;68529;43.286;23.360;2023-12-20T05:40:36;99118.31;;;3.17;61.81
79129;BME280;68529;43.286;23.360;2023-12-20T05:43:01;99119.25;;;3.02;62.03
79129;BME280;68529;43.286;23.360;2023-12-20T05:45:27;99116.78;;;2.87;63.24
79129;BME280;68529;43.286;23.360;2023-12-20T05:47:52;99115.91;;;2.89;63.02
79129;BME280;68529;43.286;23.360;2023-12-20T05:50:18;99108.13;;;2.89;63.12
79129;BME280;68529;43.286;23.360;2023-12-20T05:52:43;99106.50;;;2.66;63.22
79129;BME280;68529;43.286;23.360;2023-12-20T05:55:09;99107.44;;;2.59;63.35
79129;BME280;68529;43.286;23.360;2023-12-20T05:57:35;99103.97;;;2.55;63.09
79129;BME280;68529;43.286;23.360;2023-12-20T06:00:00;99105.66;;;2.67;63.36
79129;BME280;68529;43.286;23.360;2023-12-20T06:02:25;99104.78;;;2.68;62.85
79129;BME280;68529;43.286;23.360;2023-12-20T06:04:51;99107.41;;;2.60;63.61
79129;BME280;68529;43.286;23.360;2023-12-20T06:07:16;99098.75;;;2.60;63.62
79129;BME280;68529;43.286;23.360;2023-12-20T06:09:42;99107.44;;;2.53;63.74
79129;BME280;68529;43.286;23.360;2023-12-20T06:12:08;99096.19;;;2.61;63.53
79129;BME280;68529;43.286;23.360;2023-12-20T06:14:33;99097.06;;;2.59;63.72
79129;BME280;68529;43.286;23.360;2023-12-20T06:16:59;99091.88;;;2.59;63.00
79129;BME280;68529;43.286;23.360;2023-12-20T06:19:26;99091.06;;;2.51;63.68
79129;BME280;68529;43.286;23.360;2023-12-20T06:21:51;99103.22;;;2.33;63.64
79129;BME280;68529;43.286;23.360;2023-12-20T06:24:17;99098.91;;;2.26;64.00
79129;BME280;68529;43.286;23.360;2023-12-20T06:26:42;99091.09;;;2.35;63.89
79129;BME280;68529;43.286;23.360;2023-12-20T06:29:08;99093.66;;;2.51;63.81
79129;BME280;68529;43.286;23.360;2023-12-20T06:31:33;99090.09;;;2.64;63.76
79129;BME280;68529;43.286;23.360;2023-12-20T06:33:59;99092.72;;;2.62;63.15
79129;BME280;68529;43.286;23.360;2023-12-20T06:36:25;99080.63;;;2.60;63.75
79129;BME280;68529;43.286;23.360;2023-12-20T06:38:51;99081.50;;;2.62;63.83
79129;BME280;68529;43.286;23.360;2023-12-20T06:41:17;99077.16;;;2.64;63.16
79129;BME280;68529;43.286;23.360;2023-12-20T06:43:42;99078.91;;;2.62;63.28
79129;BME280;68529;43.286;23.360;2023-12-20T06:46:08;99082.41;;;2.49;63.62
79129;BME280;68529;43.286;23.360;2023-12-20T06:48:34;99083.09;;;2.81;63.11
79129;BME280;68529;43.286;23.360;2023-12-20T06:51:00;99076.91;;;3.03;63.18
79129;BME280;68529;43.286;23.360;2023-12-20T06:53:27;99077.66;;;3.16;62.44
79129;BME280;68529;43.286;23.360;2023-12-20T06:55:52;99075.03;;;3.23;62.95
79129;BME280;68529;43.286;23.360;2023-12-20T06:58:18;99066.91;;;3.60;62.28
79129;BME280;68529;43.286;23.360;2023-12-20T07:00:43;99069.19;;;3.88;61.92
79129;BME280;68529;43.286;23.360;2023-12-20T07:03:09;99063.50;;;4.32;61.13
79129;BME280;68529;43.286;23.360;2023-12-20T07:05:34;99058.63;;;4.74;60.01
79129;BME280;68529;43.286;23.360;2023-12-20T07:08:00;99061.69;;;5.01;59.46
79129;BME280;68529;43.286;23.360;2023-12-20T08:01:18;98994.59;;;9.07;53.13
79129;BME280;68529;43.286;23.360;2023-12-20T08:03:43;98996.78;;;8.93;53.27
79129;BME280;68529;43.286;23.360;2023-12-20T08:06:09;99004.75;;;8.60;53.82
79129;BME280;68529;43.286;23.360;2023-12-20T08:08:34;98998.03;;;8.52;54.90
79129;BME280;68529;43.286;23.360;2023-12-20T08:11:00;99001.66;;;8.48;54.44
79129;BME280;68529;43.286;23.360;2023-12-20T08:13:26;99000.53;;;8.27;54.23
79129;BME280;68529;43.286;23.360;2023-12-20T08:15:52;98998.13;;;8.18;54.58
79129;BME280;68529;43.286;23.360;2023-12-20T08:18:18;99002.72;;;8.10;54.28
79129;BME280;68529;43.286;23.360;2023-12-20T08:20:44;98991.56;;;8.36;54.14
79129;BME280;68529;43.286;23.360;2023-12-20T08:23:09;98993.38;;;8.34;54.02
79129;BME280;68529;43.286;23.360;2023-12-20T08:25:34;98987.50;;;8.24;54.56
79129;BME280;68529;43.286;23.360;2023-12-20T08:28:02;98987.91;;;8.10;54.80
79129;BME280;68529;43.286;23.360;2023-12-20T08:30:27;98991.69;;;8.00;54.89
79129;BME280;68529;43.286;23.360;2023-12-20T08:32:52;98984.72;;;7.99;54.91
79129;BME280;68529;43.286;23.360;2023-12-20T08:35:18;98984.56;;;8.05;54.85
79129;BME280;68529;43.286;23.360;2023-12-20T08:37:44;98976.94;;;7.98;54.94
79129;BME280;68529;43.286;23.360;2023-12-20T08:40:09;98969.19;;;7.95;55.09
79129;BME280;68529;43.286;23.360;2023-12-20T08:42:35;98965.44;;;8.03;54.98
79129;BME280;68529;43.286;23.360;2023-12-20T08:45:00;98964.72;;;7.98;55.31
79129;BME280;68529;43.286;23.360;2023-12-20T08:47:26;98956.19;;;8.21;55.32
79129;BME280;68529;43.286;23.360;2023-12-20T08:49:52;98962.50;;;8.45;54.92
79129;BME280;68529;43.286;23.360;2023-12-20T08:52:24;98949.97;;;8.54;54.43
79129;BME280;68529;43.286;23.360;2023-12-20T08:54:52;98942.53;;;8.41;54.64
79129;BME280;68529;43.286;23.360;2023-12-20T08:57:20;98945.59;;;8.27;55.20
79129;BME280;68529;43.286;23.360;2023-12-20T08:59:51;98941.84;;;8.36;55.48
79129;BME280;68529;43.286;23.360;2023-12-20T09:02:17;98935.97;;;8.57;55.13
79129;BME280;68529;43.286;23.360;2023-12-20T09:04:43;98931.34;;;8.65;55.07
79129;BME280;68529;43.286;23.360;2023-12-20T09:07:25;98928.38;;;8.75;55.13
79129;BME280;68529;43.286;23.360;2023-12-20T09:09:51;98924.50;;;8.87;54.69
79129;BME280;68529;43.286;23.360;2023-12-20T09:12:20;98914.03;;;8.87;54.81
79129;BME280;68529;43.286;23.360;2023-12-20T09:14:49;98910.94;;;8.74;54.97
79129;BME280;68529;43.286;23.360;2023-12-20T09:17:16;98915.31;;;8.74;55.42
79129;BME280;68529;43.286;23.360;2023-12-20T09:19:42;98904.00;;;8.73;55.79
79129;BME280;68529;43.286;23.360;2023-12-20T09:22:14;98896.75;;;8.82;55.33
79129;BME280;68529;43.286;23.360;2023-12-20T09:24:39;98901.66;;;8.91;54.70
79129;BME280;68529;43.286;23.360;2023-12-20T09:27:07;98890.00;;;9.01;54.75
79129;BME280;68529;43.286;23.360;2023-12-20T09:29:33;98881.19;;;9.03;54.35
79129;BME280;68529;43.286;23.360;2023-12-20T09:31:58;98879.16;;;9.11;54.04
79129;BME280;68529;43.286;23.360;2023-12-20T09:34:24;98872.47;;;9.27;53.77
79129;BME280;68529;43.286;23.360;2023-12-20T09:36:51;98866.06;;;9.59;53.65
79129;BME280;68529;43.286;23.360;2023-12-20T09:39:17;98868.63;;;10.07;51.69
79129;BME280;68529;43.286;23.360;2023-12-20T09:42:01;98867.03;;;10.03;51.10
79129;BME280;68529;43.286;23.360;2023-12-20T09:44:28;98860.84;;;10.27;51.47
79129;BME280;68529;43.286;23.360;2023-12-20T09:46:55;98850.25;;;10.52;51.26
79129;BME280;68529;43.286;23.360;2023-12-20T09:49:21;98842.06;;;10.60;50.94
79129;BME280;68529;43.286;23.360;2023-12-20T10:20:21;98773.00;;;13.81;44.50
79129;BME280;68529;43.286;23.360;2023-12-20T10:22:47;98768.56;;;13.33;45.06
79129;BME280;68529;43.286;23.360;2023-12-20T10:25:14;98774.28;;;13.09;46.17
79129;BME280;68529;43.286;23.360;2023-12-20T10:27:39;98771.03;;;12.87;46.47
79129;BME280;68529;43.286;23.360;2023-12-20T10:30:05;98759.63;;;12.69;46.99
79129;BME280;68529;43.286;23.360;2023-12-20T10:32:30;98749.16;;;12.50;47.14
79129;BME280;68529;43.286;23.360;2023-12-20T10:34:56;98742.00;;;12.35;47.96
79129;BME280;68529;43.286;23.360;2023-12-20T10:47:29;98740.44;;;11.39;48.09
79129;BME280;68529;43.286;23.360;2023-12-20T10:49:57;98738.72;;;11.20;48.46
79129;BME280;68529;43.286;23.360;2023-12-20T10:52:23;98737.19;;;11.16;48.72
79129;BME280;68529;43.286;23.360;2023-12-20T10:54:50;98730.94;;;11.37;48.43
79129;BME280;68529;43.286;23.360;2023-12-20T10:57:18;98735.63;;;11.67;49.06
79129;BME280;68529;43.286;23.360;2023-12-20T10:59:44;98717.75;;;12.28;48.06
79129;BME280;68529;43.286;23.360;2023-12-20T11:02:11;98713.81;;;12.89;47.31
79129;BME280;68529;43.286;23.360;2023-12-20T11:04:45;98709.78;;;13.47;46.42
79129;BME280;68529;43.286;23.360;2023-12-20T11:07:21;98718.56;;;13.94;45.49
79129;BME280;68529;43.286;23.360;2023-12-20T11:09:56;98704.00;;;14.92;44.20
79129;BME280;68529;43.286;23.360;2023-12-20T11:12:39;98694.84;;;15.12;41.59
79129;BME280;68529;43.286;23.360;2023-12-20T11:15:08;98690.63;;;15.52;41.68
79129;BME280;68529;43.286;23.360;2023-12-20T11:17:33;98688.31;;;15.46;42.27
79129;BME280;68529;43.286;23.360;2023-12-20T11:22:30;98696.16;;;15.61;42.25
79129;BME280;68529;43.286;23.360;2023-12-20T11:25:06;98678.84;;;16.23;41.17
79129;BME280;68529;43.286;23.360;2023-12-20T11:27:34;98671.25;;;16.71;39.82
79129;BME280;68529;43.286;23.360;2023-12-20T11:29:59;98671.78;;;17.14;39.46
79129;BME280;68529;43.286;23.360;2023-12-20T11:32:28;98664.19;;;17.58;39.02
79129;BME280;68529;43.286;23.360;2023-12-20T11:37:37;98643.69;;;16.34;40.74
79129;BME280;68529;43.286;23.360;2023-12-20T11:40:05;98644.16;;;16.14;41.48
79129;BME280;68529;43.286;23.360;2023-12-20T11:42:42;98643.22;;;15.61;42.28
79129;BME280;68529;43.286;23.360;2023-12-20T11:45:13;98647.25;;;15.12;42.92
79129;BME280;68529;43.286;23.360;2023-12-20T11:47:46;98639.78;;;14.76;43.44
79129;BME280;68529;43.286;23.360;2023-12-20T11:50:12;98647.75;;;14.46;42.90
79129;BME280;68529;43.286;23.360;2023-12-20T11:52:37;98631.63;;;13.91;43.22
79129;BME280;68529;43.286;23.360;2023-12-20T11:55:03;98632.94;;;13.69;44.84
79129;BME280;68529;43.286;23.360;2023-12-20T11:57:30;98624.16;;;13.68;45.81
79129;BME280;68529;43.286;23.360;2023-12-20T11:59:55;98626.06;;;13.51;45.37
79129;BME280;68529;43.286;23.360;2023-12-20T12:02:21;98626.31;;;13.15;46.11
79129;BME280;68529;43.286;23.360;2023-12-20T12:04:48;98622.19;;;13.09;46.72
79129;BME280;68529;43.286;23.360;2023-12-20T12:07:13;98627.63;;;13.06;47.29
79129;BME280;68529;43.286;23.360;2023-12-20T12:09:39;98617.97;;;13.38;47.17
79129;BME280;68529;43.286;23.360;2023-12-20T12:12:05;98611.13;;;13.65;47.75
79129;BME280;68529;43.286;23.360;2023-12-20T12:14:30;98614.44;;;13.69;47.56
79129;BME280;68529;43.286;23.360;2023-12-20T12:16:56;98613.59;;;13.68;47.51
79129;BME280;68529;43.286;23.360;2023-12-20T12:19:25;98605.94;;;13.64;47.79
79129;BME280;68529;43.286;23.360;2023-12-20T12:22:04;98600.69;;;13.48;47.14
79129;BME280;68529;43.286;23.360;2023-12-20T12:24:31;98599.16;;;13.13;48.15
79129;BME280;68529;43.286;23.360;2023-12-20T12:26:57;98598.84;;;13.02;47.97
79129;BME280;68529;43.286;23.360;2023-12-20T12:29:23;98590.84;;;12.88;48.29
79129;BME280;68529;43.286;23.360;2023-12-20T12:31:50;98594.75;;;12.80;48.68
79129;BME280;68529;43.286;23.360;2023-12-20T12:34:15;98598.03;;;12.68;48.90
79129;BME280;68529;43.286;23.360;2023-12-20T12:36:41;98595.28;;;12.54;48.66
79129;BME280;68529;43.286;23.360;2023-12-20T12:39:07;98591.50;;;12.43;48.82
79129;BME280;68529;43.286;23.360;2023-12-20T12:41:32;98590.28;;;12.65;49.16
79129;BME280;68529;43.286;23.360;2023-12-20T12:43:57;98589.31;;;12.51;48.62
79129;BME280;68529;43.286;23.360;2023-12-20T12:46:23;98585.06;;;12.48;48.64
79129;BME280;68529;43.286;23.360;2023-12-20T12:48:49;98586.34;;;12.41;48.36
79129;BME280;68529;43.286;23.360;2023-12-20T12:51:15;98592.06;;;12.32;48.31
79129;BME280;68529;43.286;23.360;2023-12-20T12:53:41;98583.56;;;12.27;48.54
79129;BME280;68529;43.286;23.360;2023-12-20T12:56:07;98583.72;;;12.24;48.53
79129;BME280;68529;43.286;23.360;2023-12-20T12:58:33;98581.34;;;12.19;48.61
79129;BME280;68529;43.286;23.360;2023-12-20T13:00:58;98586.66;;;12.18;49.06
79129;BME280;68529;43.286;23.360;2023-12-20T13:03:24;98583.31;;;12.14;49.31
79129;BME280;68529;43.286;23.360;2023-12-20T13:05:50;98581.63;;;12.13;49.46
79129;BME280;68529;43.286;23.360;2023-12-20T13:08:15;98578.16;;;12.13;49.82
79129;BME280;68529;43.286;23.360;2023-12-20T13:10:41;98575.13;;;12.03;49.26
79129;BME280;68529;43.286;23.360;2023-12-20T13:13:06;98583.41;;;11.79;49.52
79129;BME280;68529;43.286;23.360;2023-12-20T13:15:32;98577.16;;;11.62;49.85
79129;BME280;68529;43.286;23.360;2023-12-20T13:17:57;98578.31;;;11.57;49.88
79129;BME280;68529;43.286;23.360;2023-12-20T13:20:22;98577.03;;;11.30;50.46
79129;BME280;68529;43.286;23.360;2023-12-20T13:22:48;98583.63;;;11.20;51.06
79129;BME280;68529;43.286;23.360;2023-12-20T13:25:13;98583.16;;;11.30;51.66
79129;BME280;68529;43.286;23.360;2023-12-20T13:27:39;98582.63;;;11.41;51.59
79129;BME280;68529;43.286;23.360;2023-12-20T13:30:05;98586.13;;;11.41;51.65
79129;BME280;68529;43.286;23.360;2023-12-20T13:32:31;98584.84;;;11.31;51.31
79129;BME280;68529;43.286;23.360;2023-12-20T13:34:56;98587.56;;;11.30;51.60
79129;BME280;68529;43.286;23.360;2023-12-20T13:37:22;98585.31;;;11.22;51.54
79129;BME280;68529;43.286;23.360;2023-12-20T13:39:47;98587.56;;;11.11;51.52
79129;BME280;68529;43.286;23.360;2023-12-20T13:42:13;98582.81;;;11.19;51.26
79129;BME280;68529;43.286;23.360;2023-12-20T13:44:39;98578.03;;;11.27;51.11
79129;BME280;68529;43.286;23.360;2023-12-20T13:47:04;98584.97;;;11.47;50.96
79129;BME280;68529;43.286;23.360;2023-12-20T13:49:30;98581.81;;;11.57;51.17
79129;BME280;68529;43.286;23.360;2023-12-20T13:51:55;98579.81;;;11.62;51.37
79129;BME280;68529;43.286;23.360;2023-12-20T13:54:20;98582.53;;;11.61;51.18
79129;BME280;68529;43.286;23.360;2023-12-20T13:56:47;98585.03;;;11.45;51.20
79129;BME280;68529;43.286;23.360;2023-12-20T13:59:12;98586.59;;;11.49;51.43
79129;BME280;68529;43.286;23.360;2023-12-20T14:01:39;98577.09;;;11.47;52.03
79129;BME280;68529;43.286;23.360;2023-12-20T14:04:04;98580.72;;;11.44;51.97
79129;BME280;68529;43.286;23.360;2023-12-20T14:06:30;98578.44;;;11.37;52.24
79129;BME280;68529;43.286;23.360;2023-12-20T14:08:55;98572.78;;;11.27;52.66
79129;BME280;68529;43.286;23.360;2023-12-20T14:11:21;98580.75;;;11.07;52.61
79129;BME280;68529;43.286;23.360;2023-12-20T14:13:46;98577.91;;;10.74;52.63
79129;BME280;68529;43.286;23.360;2023-12-20T14:16:11;98576.34;;;10.70;52.82
79129;BME280;68529;43.286;23.360;2023-12-20T14:18:37;98577.56;;;10.63;52.81
79129;BME280;68529;43.286;23.360;2023-12-20T14:21:05;98569.88;;;10.59;53.38
79129;BME280;68529;43.286;23.360;2023-12-20T14:23:31;98572.94;;;10.49;53.88
79129;BME280;68529;43.286;23.360;2023-12-20T14:25:58;98576.22;;;10.34;53.69
79129;BME280;68529;43.286;23.360;2023-12-20T14:28:24;98579.38;;;10.22;53.47
79129;BME280;68529;43.286;23.360;2023-12-20T14:30:50;98574.25;;;10.19;54.27
79129;BME280;68529;43.286;23.360;2023-12-20T14:33:15;98568.34;;;10.14;54.30